createdAt,value
2023-03-10T00:00:31.112Z,23.84
2023-03-10T00:03:00.925Z,23.93
2023-03-10T00:05:31.236Z,23.89
2023-03-10T00:08:01.112Z,23.82
2023-03-10T00:10:31.708Z,23.92
2023-03-10T00:13:01.681Z,23.41
2023-03-10T00:15:32.890Z,23.09
2023-03-10T00:18:02.723Z,23.12
2023-03-10T00:20:32.944Z,23.06
2023-03-10T00:23:02.783Z,23.00
2023-03-10T00:25:33.006Z,22.89
2023-03-10T00:28:02.890Z,22.83
2023-03-10T00:30:36.356Z,22.78
2023-03-10T00:33:06.271Z,22.74
2023-03-10T00:35:35.851Z,22.83
2023-03-10T00:38:06.125Z,22.93
2023-03-10T00:40:35.890Z,22.96
2023-03-10T00:43:05.684Z,23.03
2023-03-10T00:45:37.391Z,23.09
2023-03-10T00:48:08.070Z,23.07
2023-03-10T00:50:38.352Z,22.89
2023-03-10T00:53:07.991Z,22.73
2023-03-10T00:55:37.881Z,22.63
2023-03-10T00:58:08.182Z,22.62
2023-03-10T01:00:38.195Z,22.55
2023-03-10T01:03:08.796Z,22.42
2023-03-10T01:05:38.558Z,22.39
2023-03-10T01:08:08.227Z,22.29
2023-03-10T01:10:38.524Z,22.18
2023-03-10T01:13:08.527Z,22.19
2023-03-10T01:15:39.236Z,22.28
2023-03-10T01:18:09.371Z,22.30
2023-03-10T01:20:42.734Z,22.48
2023-03-10T01:23:19.029Z,22.52
2023-03-10T01:25:50.303Z,22.53
2023-03-10T01:28:21.799Z,22.58
2023-03-10T01:30:52.506Z,22.65
2023-03-10T01:33:22.462Z,22.67
2023-03-10T01:35:52.140Z,22.61
2023-03-10T01:38:22.406Z,22.57
2023-03-10T01:40:52.921Z,22.59
2023-03-10T01:43:26.044Z,22.60
2023-03-10T01:45:55.752Z,22.58
2023-03-10T01:48:26.378Z,22.60
2023-03-10T01:50:58.665Z,22.60
2023-03-10T01:53:30.311Z,22.52
2023-03-10T01:56:05.498Z,22.52
2023-03-10T01:58:45.798Z,22.57
2023-03-10T02:01:17.346Z,22.56
2023-03-10T02:04:05.054Z,22.21
2023-03-10T02:06:36.494Z,22.26
2023-03-10T02:09:07.249Z,22.30
2023-03-10T02:11:37.380Z,22.17
2023-03-10T02:14:08.050Z,21.95
2023-03-10T02:16:38.514Z,22.10
2023-03-10T02:19:18.213Z,22.43
2023-03-10T02:22:13.542Z,22.42
2023-03-10T02:24:47.423Z,22.41
2023-03-10T02:27:29.194Z,22.14
2023-03-10T02:30:11.697Z,21.99
2023-03-10T02:32:49.919Z,21.96
2023-03-10T02:35:20.386Z,21.87
2023-03-10T02:37:56.153Z,21.82
2023-03-10T02:40:41.588Z,21.93
2023-03-10T02:43:32.647Z,21.96
2023-03-10T02:46:19.047Z,22.02
2023-03-10T02:48:49.476Z,22.04
2023-03-10T02:51:31.165Z,21.99
2023-03-10T02:54:04.541Z,21.85
2023-03-10T02:56:35.570Z,21.81
2023-03-10T02:59:08.042Z,21.66
2023-03-10T03:01:40.100Z,21.57
2023-03-10T03:04:10.057Z,21.58
2023-03-10T03:06:41.460Z,21.63
2023-03-10T03:09:11.402Z,21.52
2023-03-10T03:11:42.610Z,21.61
2023-03-10T03:14:12.683Z,21.78
2023-03-10T03:16:43.015Z,21.76
2023-03-10T03:19:13.845Z,21.65
2023-03-10T03:21:51.173Z,21.68
2023-03-10T03:24:24.187Z,21.58
2023-03-10T03:26:54.708Z,21.56
2023-03-10T03:29:27.853Z,21.49
2023-03-10T03:31:58.275Z,21.44
2023-03-10T03:34:32.631Z,21.35
2023-03-10T03:37:06.414Z,21.26
2023-03-10T03:39:40.415Z,21.24
2023-03-10T03:42:11.753Z,21.27
2023-03-10T03:44:49.771Z,21.27
2023-03-10T03:47:20.416Z,21.28
2023-03-10T03:49:50.785Z,21.34
2023-03-10T03:52:21.255Z,21.43
2023-03-10T03:54:51.041Z,21.39
2023-03-10T03:57:21.785Z,21.50
2023-03-10T03:59:51.810Z,21.43
2023-03-10T04:02:22.351Z,21.45
2023-03-10T04:04:56.471Z,21.45
2023-03-10T04:07:27.021Z,21.52
2023-03-10T04:09:57.326Z,21.60
2023-03-10T04:12:28.594Z,21.60
2023-03-10T04:14:59.956Z,21.56
2023-03-10T04:17:30.396Z,21.58
2023-03-10T04:20:07.052Z,21.50
2023-03-10T04:22:40.974Z,21.34
2023-03-10T04:25:12.965Z,21.22
2023-03-10T04:27:43.672Z,21.28
2023-03-10T04:30:15.280Z,21.21
2023-03-10T04:32:49.430Z,21.20
2023-03-10T04:35:21.852Z,21.09
2023-03-10T04:37:52.873Z,21.16
2023-03-10T04:40:23.621Z,21.23
2023-03-10T04:42:54.800Z,21.34
2023-03-10T04:45:24.790Z,21.41
2023-03-10T04:47:56.290Z,21.44
2023-03-10T04:50:26.130Z,21.36
2023-03-10T04:52:57.460Z,21.43
2023-03-10T04:55:31.354Z,21.38
2023-03-10T04:58:02.693Z,21.15
2023-03-10T05:00:33.319Z,21.03
2023-03-10T05:03:03.815Z,21.00
2023-03-10T05:05:37.612Z,21.08
2023-03-10T05:08:08.680Z,21.08
2023-03-10T05:10:42.204Z,21.27
2023-03-10T05:13:13.984Z,21.19
2023-03-10T05:15:45.147Z,21.09
2023-03-10T05:18:15.435Z,21.06
2023-03-10T05:20:45.201Z,21.10
2023-03-10T05:23:15.332Z,21.12
2023-03-10T05:25:45.521Z,21.30
2023-03-10T05:28:16.743Z,21.13
2023-03-10T05:30:46.996Z,21.14
2023-03-10T05:33:16.713Z,21.28
2023-03-10T05:35:46.519Z,21.25
2023-03-10T05:38:17.144Z,21.14
2023-03-10T05:40:46.952Z,21.09
2023-03-10T05:43:17.828Z,20.98
2023-03-10T05:45:57.132Z,20.98
2023-03-10T05:48:29.471Z,20.83
2023-03-10T05:51:07.847Z,20.80
2023-03-10T05:53:41.146Z,20.85
2023-03-10T05:56:19.065Z,20.88
2023-03-10T05:58:53.468Z,20.86
2023-03-10T06:01:27.866Z,20.88
2023-03-10T06:03:58.512Z,20.85
2023-03-10T06:06:28.313Z,20.91
2023-03-10T06:08:58.457Z,20.92
2023-03-10T06:11:28.726Z,20.92
2023-03-10T06:13:58.543Z,20.96
2023-03-10T06:16:28.824Z,21.02
2023-03-10T06:18:59.047Z,21.00
2023-03-10T06:21:30.560Z,21.12
2023-03-10T06:24:01.620Z,21.09
2023-03-10T06:26:31.804Z,21.20
2023-03-10T06:29:01.634Z,21.26
2023-03-10T06:31:31.957Z,21.31
2023-03-10T06:34:04.323Z,21.29
2023-03-10T06:36:34.784Z,21.34
2023-03-10T06:39:05.316Z,21.34
2023-03-10T06:41:37.559Z,21.36
2023-03-10T06:44:07.448Z,21.38
2023-03-10T06:46:37.672Z,21.37
2023-03-10T06:49:07.460Z,21.39
2023-03-10T06:51:37.655Z,21.38
2023-03-10T06:54:08.161Z,21.39
2023-03-10T06:56:37.958Z,21.43
2023-03-10T06:59:08.200Z,21.50
2023-03-10T07:01:38.089Z,21.50
2023-03-10T07:04:08.600Z,21.50
2023-03-10T07:06:38.506Z,21.46
2023-03-10T07:09:08.869Z,21.52
2023-03-10T07:11:40.241Z,21.54
2023-03-10T07:14:10.461Z,21.47
2023-03-10T07:16:43.313Z,21.38
2023-03-10T07:19:14.222Z,21.33
2023-03-10T07:21:43.972Z,21.18
2023-03-10T07:24:14.332Z,21.00
2023-03-10T07:26:44.435Z,20.79
2023-03-10T07:29:14.027Z,20.64
2023-03-10T07:31:46.249Z,20.52
2023-03-10T07:34:16.071Z,20.55
2023-03-10T07:36:46.319Z,20.53
2023-03-10T07:39:16.390Z,20.47
2023-03-10T07:41:46.594Z,20.43
2023-03-10T07:44:16.512Z,20.53
2023-03-10T07:46:46.718Z,20.57
2023-03-10T07:49:16.396Z,20.67
2023-03-10T07:51:46.163Z,20.72
2023-03-10T07:54:16.372Z,20.78
2023-03-10T07:56:46.157Z,20.82
2023-03-10T07:59:15.943Z,20.90
2023-03-10T08:01:46.145Z,20.91
2023-03-10T08:04:18.187Z,20.88
2023-03-10T08:06:48.571Z,20.83
2023-03-10T08:09:18.442Z,20.86
2023-03-10T08:11:48.673Z,20.85
2023-03-10T08:14:21.140Z,20.88
2023-03-10T08:16:52.795Z,20.90
2023-03-10T08:19:22.673Z,20.91
2023-03-10T08:21:53.192Z,20.93
2023-03-10T08:24:29.953Z,20.99
2023-03-10T08:26:59.761Z,21.05
2023-03-10T08:29:29.454Z,21.08
2023-03-10T08:31:59.963Z,20.95
2023-03-10T08:34:34.816Z,20.95
2023-03-10T08:37:06.903Z,20.98
2023-03-10T08:39:36.871Z,21.09
2023-03-10T08:42:06.512Z,21.12
2023-03-10T08:44:36.743Z,21.13
2023-03-10T08:47:06.507Z,21.16
2023-03-10T08:49:37.155Z,21.13
2023-03-10T08:52:07.182Z,21.11
2023-03-10T08:54:37.474Z,21.14
2023-03-10T08:57:07.373Z,21.04
2023-03-10T08:59:37.643Z,20.85
2023-03-10T09:02:07.409Z,20.76
2023-03-10T09:04:37.687Z,20.74
2023-03-10T09:07:07.317Z,20.67
2023-03-10T09:09:37.280Z,20.57
2023-03-10T09:12:10.035Z,20.43
2023-03-10T09:14:40.036Z,20.52
2023-03-10T09:17:11.947Z,20.71
2023-03-10T09:19:41.947Z,20.74
2023-03-10T09:22:11.537Z,20.67
2023-03-10T09:24:41.747Z,20.81
2023-03-10T09:27:11.431Z,20.92
2023-03-10T09:29:43.369Z,20.85
2023-03-10T09:32:14.061Z,20.95
2023-03-10T09:34:44.077Z,21.03
2023-03-10T09:37:13.687Z,21.13
2023-03-10T09:39:44.182Z,21.17
2023-03-10T09:42:37.836Z,21.22
2023-03-10T09:45:21.287Z,21.38
2023-03-10T09:48:04.830Z,21.65
2023-03-10T09:50:50.430Z,21.80
2023-03-10T09:53:41.332Z,21.68
2023-03-10T09:56:21.562Z,21.41
2023-03-10T09:58:56.950Z,21.26
2023-03-10T10:01:31.652Z,21.37
2023-03-10T10:04:01.512Z,21.34
2023-03-10T10:06:38.323Z,21.28
2023-03-10T10:09:46.264Z,21.36
2023-03-10T10:12:24.667Z,21.52
2023-03-10T10:15:01.657Z,21.45
2023-03-10T10:18:18.520Z,21.50
2023-03-10T10:21:03.389Z,21.54
2023-03-10T10:23:45.408Z,21.61
2023-03-10T10:26:21.220Z,21.67
2023-03-10T10:29:08.177Z,21.68
2023-03-10T10:31:38.088Z,21.82
2023-03-10T10:34:29.574Z,21.93
2023-03-10T10:37:00.927Z,21.99
2023-03-10T10:39:52.325Z,22.08
2023-03-10T10:42:29.673Z,22.28
2023-03-10T10:45:08.654Z,22.30
2023-03-10T10:47:51.605Z,22.32
2023-03-10T10:50:30.813Z,22.60
2023-03-10T10:53:20.202Z,22.66
2023-03-10T10:56:03.207Z,22.89
2023-03-10T10:58:39.663Z,22.84
2023-03-10T11:01:15.797Z,22.95
2023-03-10T11:03:51.240Z,22.97
2023-03-10T11:06:28.394Z,23.04
2023-03-10T11:09:10.909Z,22.98
2023-03-10T11:12:00.516Z,22.83
2023-03-10T11:14:54.122Z,22.99
2023-03-10T11:17:34.436Z,23.40
2023-03-10T11:20:16.851Z,23.91
2023-03-10T11:23:16.870Z,24.33
2023-03-10T11:26:07.602Z,24.87
2023-03-10T11:29:01.557Z,25.33
2023-03-10T11:31:50.369Z,25.80
2023-03-10T11:34:22.937Z,26.29
2023-03-10T11:36:58.976Z,26.75
2023-03-10T11:39:55.148Z,27.74
2023-03-10T11:42:35.836Z,28.40
2023-03-10T11:45:26.162Z,29.23
2023-03-10T11:48:02.072Z,30.45
2023-03-10T11:50:42.001Z,31.07
2023-03-10T11:53:21.926Z,32.18
2023-03-10T11:55:53.844Z,32.00
2023-03-10T11:58:47.040Z,33.06
2023-03-10T12:01:43.911Z,33.82
2023-03-10T12:04:16.904Z,33.45
2023-03-10T12:07:07.135Z,32.26
2023-03-10T12:09:58.987Z,33.07
2023-03-10T12:12:38.097Z,33.58
2023-03-10T12:15:38.090Z,34.25
2023-03-10T12:18:09.623Z,34.06
2023-03-10T12:20:39.848Z,34.36
2023-03-10T12:23:12.611Z,35.02
2023-03-10T12:25:47.463Z,34.73
2023-03-10T12:28:34.355Z,35.19
2023-03-10T12:31:16.064Z,34.54
2023-03-10T12:33:47.715Z,34.75
2023-03-10T12:36:36.621Z,35.39
2023-03-10T12:39:30.805Z,35.55
2023-03-10T12:42:26.206Z,35.32
2023-03-10T12:45:18.759Z,34.55
2023-03-10T12:47:59.206Z,34.23
2023-03-10T12:50:56.778Z,35.22
2023-03-10T12:53:47.387Z,35.57
2023-03-10T12:56:17.190Z,36.12
2023-03-10T12:59:34.544Z,36.50
2023-03-10T13:02:10.913Z,36.80
2023-03-10T13:04:44.052Z,36.29
2023-03-10T13:07:18.653Z,36.42
2023-03-10T13:09:50.329Z,34.98
2023-03-10T13:12:28.954Z,36.22
2023-03-10T13:15:01.416Z,36.77
2023-03-10T13:17:33.242Z,35.58
2023-03-10T13:20:21.097Z,34.79
2023-03-10T13:22:59.116Z,34.79
2023-03-10T13:25:29.648Z,36.28
2023-03-10T13:27:59.452Z,36.46
2023-03-10T13:30:29.273Z,37.23
2023-03-10T13:33:05.228Z,37.37
2023-03-10T13:35:39.270Z,37.75
2023-03-10T13:38:14.947Z,37.87
2023-03-10T13:40:48.058Z,38.52
2023-03-10T13:43:43.942Z,39.19
2023-03-10T13:46:21.032Z,37.89
2023-03-10T13:48:52.496Z,38.59
2023-03-10T13:51:33.498Z,38.53
2023-03-10T13:54:24.794Z,37.82
2023-03-10T13:56:59.379Z,37.65
2023-03-10T13:59:32.469Z,38.94
2023-03-10T14:02:03.584Z,37.87
2023-03-10T14:04:51.500Z,38.40
2023-03-10T14:07:27.066Z,38.44
2023-03-10T14:10:06.391Z,39.25
2023-03-10T14:12:53.658Z,39.13
2023-03-10T14:15:31.746Z,37.56
2023-03-10T14:18:10.371Z,38.23
2023-03-10T14:20:45.752Z,38.53
2023-03-10T14:23:23.558Z,39.06
2023-03-10T14:25:57.348Z,38.58
2023-03-10T14:28:29.837Z,38.90
2023-03-10T14:31:07.957Z,39.21
2023-03-10T14:33:37.977Z,38.60
2023-03-10T14:36:13.174Z,38.66
2023-03-10T14:38:43.307Z,38.26
2023-03-10T14:41:15.232Z,39.21
2023-03-10T14:43:45.201Z,38.62
2023-03-10T14:46:15.727Z,39.49
2023-03-10T14:48:47.088Z,39.20
2023-03-10T14:51:34.399Z,39.66
2023-03-10T14:54:05.727Z,38.57
2023-03-10T14:56:35.965Z,38.33
2023-03-10T14:59:07.734Z,38.06
2023-03-10T15:01:38.487Z,39.43
2023-03-10T15:04:14.397Z,39.55
2023-03-10T15:06:45.411Z,38.47
2023-03-10T15:09:15.169Z,38.68
2023-03-10T15:11:45.412Z,38.41
2023-03-10T15:14:20.880Z,38.54
2023-03-10T15:16:51.110Z,37.82
2023-03-10T15:19:25.876Z,37.48
2023-03-10T15:21:56.463Z,37.97
2023-03-10T15:24:26.233Z,38.46
2023-03-10T15:26:56.644Z,37.32
2023-03-10T15:29:26.455Z,37.34
2023-03-10T15:31:56.751Z,38.11
2023-03-10T15:34:26.596Z,37.94
2023-03-10T15:36:59.818Z,37.21
2023-03-10T15:39:32.574Z,37.23
2023-03-10T15:42:03.642Z,38.15
2023-03-10T15:44:33.504Z,37.87
2023-03-10T15:47:03.813Z,38.70
2023-03-10T15:49:33.591Z,37.86
2023-03-10T15:52:03.808Z,38.17
2023-03-10T15:54:35.557Z,38.42
2023-03-10T15:57:06.482Z,37.60
2023-03-10T15:59:38.104Z,37.72
2023-03-10T16:02:08.946Z,37.82
2023-03-10T16:04:38.839Z,37.19
2023-03-10T16:07:09.154Z,37.08
2023-03-10T16:09:39.825Z,37.85
2023-03-10T16:12:10.185Z,37.52
2023-03-10T16:14:39.770Z,38.56
2023-03-10T16:17:10.408Z,38.36
2023-03-10T16:19:40.542Z,38.07
2023-03-10T16:22:11.526Z,37.86
2023-03-10T16:24:42.171Z,38.56
2023-03-10T16:27:12.368Z,38.75
2023-03-10T16:29:42.618Z,38.26
2023-03-10T16:32:13.280Z,39.15
2023-03-10T16:34:43.498Z,38.02
2023-03-10T16:37:13.407Z,37.97
2023-03-10T16:39:44.504Z,38.45
2023-03-10T16:42:14.411Z,38.85
2023-03-10T16:44:44.601Z,39.52
2023-03-10T16:47:15.684Z,40.08
2023-03-10T16:49:47.884Z,39.58
2023-03-10T16:52:17.881Z,39.71
2023-03-10T16:54:48.495Z,39.14
2023-03-10T16:57:19.123Z,39.79
2023-03-10T16:59:49.681Z,39.99
2023-03-10T17:02:19.533Z,40.35
2023-03-10T17:04:50.268Z,40.77
2023-03-10T17:07:20.525Z,40.70
2023-03-10T17:09:50.802Z,39.53
2023-03-10T17:12:21.064Z,39.84
2023-03-10T17:14:51.982Z,40.10
2023-03-10T17:17:21.779Z,38.97
2023-03-10T17:19:52.952Z,39.70
2023-03-10T17:22:23.071Z,40.27
2023-03-10T17:24:57.810Z,39.45
2023-03-10T17:27:27.781Z,38.09
2023-03-10T17:29:57.983Z,38.60
2023-03-10T17:32:28.806Z,38.26
2023-03-10T17:34:59.134Z,37.10
2023-03-10T17:37:28.731Z,37.35
2023-03-10T17:39:59.156Z,37.59
2023-03-10T17:42:31.207Z,38.00
2023-03-10T17:45:01.416Z,36.56
2023-03-10T17:47:31.083Z,35.34
2023-03-10T17:50:03.209Z,35.83
2023-03-10T17:52:33.509Z,35.98
2023-03-10T17:55:03.075Z,36.02
2023-03-10T17:57:32.918Z,36.21
2023-03-10T18:00:03.194Z,36.46
2023-03-10T18:02:41.331Z,36.69
2023-03-10T18:05:12.392Z,36.50
2023-03-10T18:07:42.195Z,36.76
2023-03-10T18:10:13.008Z,36.73
2023-03-10T18:12:42.928Z,35.60
2023-03-10T18:15:14.988Z,35.79
2023-03-10T18:17:44.796Z,37.03
2023-03-10T18:20:16.569Z,37.33
2023-03-10T18:22:46.373Z,36.94
2023-03-10T18:25:15.987Z,37.22
2023-03-10T18:27:46.239Z,36.82
2023-03-10T18:30:17.416Z,36.76
2023-03-10T18:32:48.843Z,36.83
2023-03-10T18:35:19.071Z,36.75
2023-03-10T18:37:49.334Z,36.57
2023-03-10T18:40:19.513Z,36.84
2023-03-10T18:42:57.162Z,36.13
2023-03-10T18:45:27.052Z,36.08
2023-03-10T18:47:58.571Z,36.08
2023-03-10T18:50:28.471Z,37.04
2023-03-10T18:52:58.958Z,37.29
2023-03-10T18:55:28.808Z,37.53
2023-03-10T18:57:59.079Z,36.75
2023-03-10T19:00:29.119Z,34.90
2023-03-10T19:02:59.389Z,34.88
2023-03-10T19:05:29.569Z,34.98
2023-03-10T19:07:59.864Z,34.94
2023-03-10T19:10:29.674Z,34.56
2023-03-10T19:12:59.941Z,34.40
2023-03-10T19:15:29.757Z,34.28
2023-03-10T19:18:00.788Z,34.10
2023-03-10T19:20:30.680Z,33.84
2023-03-10T19:23:00.960Z,33.68
2023-03-10T19:25:31.504Z,33.42
2023-03-10T19:28:01.724Z,33.41
2023-03-10T19:30:33.794Z,33.37
2023-03-10T19:33:04.082Z,33.36
2023-03-10T19:35:33.835Z,33.26
2023-03-10T19:38:05.315Z,33.28
2023-03-10T19:40:35.735Z,33.38
2023-03-10T19:43:06.223Z,33.63
2023-03-10T19:45:36.020Z,33.66
2023-03-10T19:48:06.921Z,33.60
2023-03-10T19:50:37.850Z,33.34
2023-03-10T19:53:08.293Z,32.85
2023-03-10T19:55:39.288Z,32.18
2023-03-10T19:58:10.067Z,31.68
2023-03-10T20:00:39.861Z,31.21
2023-03-10T20:03:11.450Z,31.44
2023-03-10T20:05:41.972Z,31.69
2023-03-10T20:08:12.228Z,31.76
2023-03-10T20:10:42.157Z,31.83
2023-03-10T20:13:12.608Z,31.86
2023-03-10T20:15:42.782Z,31.87
2023-03-10T20:18:13.032Z,31.82
2023-03-10T20:20:43.077Z,31.65
2023-03-10T20:23:13.443Z,31.73
2023-03-10T20:25:43.906Z,31.71
2023-03-10T20:28:15.398Z,31.64
2023-03-10T20:30:45.427Z,31.47
2023-03-10T20:33:16.042Z,31.18
2023-03-10T20:35:45.941Z,31.10
2023-03-10T20:38:16.193Z,30.90
2023-03-10T20:40:46.919Z,30.82
2023-03-10T20:43:18.452Z,30.79
2023-03-10T20:45:51.791Z,30.77
2023-03-10T20:48:22.048Z,30.59
2023-03-10T20:50:58.163Z,30.59
2023-03-10T20:53:28.488Z,30.54
2023-03-10T20:55:58.468Z,30.45
2023-03-10T20:58:29.285Z,30.27
2023-03-10T21:00:59.345Z,30.12
2023-03-10T21:03:29.804Z,29.98
2023-03-10T21:06:00.275Z,29.91
2023-03-10T21:08:30.555Z,29.59
2023-03-10T21:11:00.386Z,29.52
2023-03-10T21:13:31.800Z,29.39
2023-03-10T21:16:02.241Z,29.23
2023-03-10T21:18:35.443Z,29.11
2023-03-10T21:21:10.731Z,28.97
2023-03-10T21:23:44.471Z,28.94
2023-03-10T21:26:22.347Z,28.77
2023-03-10T21:28:52.648Z,28.60
2023-03-10T21:31:23.761Z,28.41
2023-03-10T21:33:54.107Z,28.33
2023-03-10T21:36:27.114Z,28.21
2023-03-10T21:38:58.254Z,28.11
2023-03-10T21:41:30.216Z,27.95
2023-03-10T21:44:01.108Z,27.86
2023-03-10T21:46:31.112Z,27.84
2023-03-10T21:49:01.568Z,27.69
2023-03-10T21:51:34.988Z,27.60
2023-03-10T21:54:06.201Z,27.51
2023-03-10T21:56:35.992Z,27.40
2023-03-10T21:59:05.580Z,27.31
2023-03-10T22:01:36.134Z,27.18
2023-03-10T22:04:05.973Z,27.08
2023-03-10T22:06:36.292Z,26.91
2023-03-10T22:09:05.935Z,26.91
2023-03-10T22:11:37.311Z,26.93
2023-03-10T22:14:07.617Z,26.82
2023-03-10T22:16:37.602Z,26.81
2023-03-10T22:19:07.775Z,26.63
2023-03-10T22:21:38.247Z,26.56
2023-03-10T22:24:08.609Z,26.47
2023-03-10T22:26:38.364Z,26.52
2023-03-10T22:29:09.206Z,26.55
2023-03-10T22:31:39.175Z,26.49
2023-03-10T22:34:08.773Z,26.42
2023-03-10T22:36:39.014Z,26.47
2023-03-10T22:39:08.590Z,26.48
2023-03-10T22:41:38.887Z,26.48
2023-03-10T22:44:09.218Z,26.41
2023-03-10T22:46:39.142Z,26.31
2023-03-10T22:49:09.376Z,26.24
2023-03-10T22:51:40.241Z,26.20
2023-03-10T22:54:10.872Z,26.03
2023-03-10T22:56:40.758Z,25.90
2023-03-10T22:59:10.971Z,25.86
2023-03-10T23:01:41.365Z,25.84
2023-03-10T23:04:11.560Z,25.76
2023-03-10T23:06:41.455Z,25.75
2023-03-10T23:09:11.970Z,25.80
2023-03-10T23:11:41.933Z,25.77
2023-03-10T23:14:12.245Z,25.70
2023-03-10T23:16:42.159Z,25.59
2023-03-10T23:19:12.990Z,25.52
2023-03-10T23:21:42.839Z,25.46
2023-03-10T23:24:13.254Z,25.42
2023-03-10T23:26:43.126Z,25.40
2023-03-10T23:29:13.301Z,25.33
2023-03-10T23:31:43.247Z,25.34
2023-03-10T23:34:13.551Z,25.22
2023-03-10T23:36:43.355Z,25.10
2023-03-10T23:39:14.683Z,25.07
2023-03-10T23:41:45.121Z,25.06
2023-03-10T23:44:14.967Z,25.11
2023-03-10T23:46:45.194Z,25.18
2023-03-10T23:49:14.998Z,25.19
2023-03-10T23:51:45.274Z,25.17
2023-03-10T23:54:15.053Z,25.10
2023-03-10T23:56:45.287Z,25.04
2023-03-10T23:59:15.073Z,24.99
